sensor_id;sensor_type;location;lat;lon;timestamp;temperature;humidity
1021;DHT22;499;42.648;23.270;2024-03-02T00:13:53;7.30;74.30
1021;DHT22;499;42.648;23.270;2024-03-02T00:17:27;7.20;74.20
1021;DHT22;499;42.648;23.270;2024-03-02T00:21:09;7.40;73.70
1021;DHT22;499;42.648;23.270;2024-03-02T00:24:39;7.30;75.70
1021;DHT22;499;42.648;23.270;2024-03-02T00:42:55;7.40;76.40
1021;DHT22;499;42.648;23.270;2024-03-02T00:46:54;7.40;76.00
1021;DHT22;499;42.648;23.270;2024-03-02T01:32:56;7.70;81.30
1021;DHT22;499;42.648;23.270;2024-03-02T01:36:15;7.80;78.80
1021;DHT22;499;42.648;23.270;2024-03-02T01:39:35;7.80;79.20
1021;DHT22;499;42.648;23.270;2024-03-02T01:46:12;7.60;78.60
1021;DHT22;499;42.648;23.270;2024-03-02T02:03:51;7.50;82.60
1021;DHT22;499;42.648;23.270;2024-03-02T02:07:05;7.60;84.80
1021;DHT22;499;42.648;23.270;2024-03-02T02:10:20;7.60;85.20
1021;DHT22;499;42.648;23.270;2024-03-02T02:17:36;7.80;77.70
1021;DHT22;499;42.648;23.270;2024-03-02T02:21:00;7.90;76.90
1021;DHT22;499;42.648;23.270;2024-03-02T02:24:09;7.80;74.30
1021;DHT22;499;42.648;23.270;2024-03-02T02:27:45;7.50;72.30
1021;DHT22;499;42.648;23.270;2024-03-02T02:38:09;7.50;84.60
1021;DHT22;499;42.648;23.270;2024-03-02T05:26:48;7.50;93.80
1021;DHT22;499;42.648;23.270;2024-03-02T05:29:46;7.40;94.40
1021;DHT22;499;42.648;23.270;2024-03-02T05:32:49;7.30;96.00
1021;DHT22;499;42.648;23.270;2024-03-02T05:36:13;7.20;98.30
1021;DHT22;499;42.648;23.270;2024-03-02T05:39:59;7.20;99.80
1021;DHT22;499;42.648;23.270;2024-03-02T05:43:30;7.20;99.90
1021;DHT22;499;42.648;23.270;2024-03-02T05:46:27;7.10;99.90
1021;DHT22;499;42.648;23.270;2024-03-02T05:49:36;7.20;99.90
1021;DHT22;499;42.648;23.270;2024-03-02T05:52:53;7.30;99.90
1021;DHT22;499;42.648;23.270;2024-03-02T05:55:45;7.40;99.90
1021;DHT22;499;42.648;23.270;2024-03-02T06:03:03;7.50;99.90
1021;DHT22;499;42.648;23.270;2024-03-02T06:06:32;7.60;99.90
1021;DHT22;499;42.648;23.270;2024-03-02T06:09:47;7.50;99.80
1021;DHT22;499;42.648;23.270;2024-03-02T06:13:07;7.40;99.90
1021;DHT22;499;42.648;23.270;2024-03-02T06:15:57;7.40;99.90
1021;DHT22;499;42.648;23.270;2024-03-02T06:19:06;7.40;99.90
1021;DHT22;499;42.648;23.270;2024-03-02T06:22:12;7.50;99.90
1021;DHT22;499;42.648;23.270;2024-03-02T06:24:49;7.50;99.90
1021;DHT22;499;42.648;23.270;2024-03-02T06:27:37;7.50;99.90
1021;DHT22;499;42.648;23.270;2024-03-02T06:30:21;7.30;99.90
1021;DHT22;499;42.648;23.270;2024-03-02T06:33:08;7.50;99.90
1021;DHT22;499;42.648;23.270;2024-03-02T06:36:23;7.50;99.90
1021;DHT22;499;42.648;23.270;2024-03-02T06:39:21;7.50;99.90
1021;DHT22;499;42.648;23.270;2024-03-02T06:42:16;7.50;99.90
1021;DHT22;499;42.648;23.270;2024-03-02T06:45:04;7.40;99.90
1021;DHT22;499;42.648;23.270;2024-03-02T06:48:08;7.30;99.90
1021;DHT22;499;42.648;23.270;2024-03-02T06:54:41;7.20;99.90
1021;DHT22;499;42.648;23.270;2024-03-02T06:57:40;7.20;99.90
1021;DHT22;499;42.648;23.270;2024-03-02T07:00:26;7.30;99.90
1021;DHT22;499;42.648;23.270;2024-03-02T07:03:16;7.20;99.90
1021;DHT22;499;42.648;23.270;2024-03-02T07:06:10;7.20;99.90
1021;DHT22;499;42.648;23.270;2024-03-02T07:09:17;7.20;99.90
1021;DHT22;499;42.648;23.270;2024-03-02T07:11:48;7.30;99.90
1021;DHT22;499;42.648;23.270;2024-03-02T07:14:15;7.20;99.90
1021;DHT22;499;42.648;23.270;2024-03-02T07:16:42;7.30;99.90
1021;DHT22;499;42.648;23.270;2024-03-02T07:19:09;7.50;99.90
1021;DHT22;499;42.648;23.270;2024-03-02T07:21:36;7.60;99.90
1021;DHT22;499;42.648;23.270;2024-03-02T07:24:03;7.60;99.90
1021;DHT22;499;42.648;23.270;2024-03-02T07:26:32;7.70;99.90
1021;DHT22;499;42.648;23.270;2024-03-02T07:28:59;7.70;99.90
1021;DHT22;499;42.648;23.270;2024-03-02T07:31:26;7.70;99.00
1021;DHT22;499;42.648;23.270;2024-03-02T07:33:53;7.90;99.70
1021;DHT22;499;42.648;23.270;2024-03-02T07:36:20;7.90;98.20
1021;DHT22;499;42.648;23.270;2024-03-02T07:38:47;7.90;97.40
1021;DHT22;499;42.648;23.270;2024-03-02T07:41:16;8.10;96.80
1021;DHT22;499;42.648;23.270;2024-03-02T07:43:44;8.20;94.80
1021;DHT22;499;42.648;23.270;2024-03-02T07:46:11;8.30;94.40
1021;DHT22;499;42.648;23.270;2024-03-02T07:48:38;8.30;93.60
1021;DHT22;499;42.648;23.270;2024-03-02T07:51:05;8.40;92.50
1021;DHT22;499;42.648;23.270;2024-03-02T07:53:32;8.50;90.50
1021;DHT22;499;42.648;23.270;2024-03-02T07:55:59;8.40;89.60
1021;DHT22;499;42.648;23.270;2024-03-02T07:58:28;8.30;88.30
1021;DHT22;499;42.648;23.270;2024-03-02T08:00:58;8.30;90.00
1021;DHT22;499;42.648;23.270;2024-03-02T08:03:26;8.30;90.00
1021;DHT22;499;42.648;23.270;2024-03-02T08:05:54;8.30;90.10
1021;DHT22;499;42.648;23.270;2024-03-02T08:08:21;8.20;90.40
1021;DHT22;499;42.648;23.270;2024-03-02T08:10:48;8.20;91.50
1021;DHT22;499;42.648;23.270;2024-03-02T08:13:15;8.20;91.00
1021;DHT22;499;42.648;23.270;2024-03-02T08:15:42;8.10;92.00
1021;DHT22;499;42.648;23.270;2024-03-02T08:18:10;8.00;93.50
1021;DHT22;499;42.648;23.270;2024-03-02T08:20:37;8.00;95.00
1021;DHT22;499;42.648;23.270;2024-03-02T08:23:05;8.10;96.30
1021;DHT22;499;42.648;23.270;2024-03-02T08:25:32;8.20;97.10
1021;DHT22;499;42.648;23.270;2024-03-02T08:27:59;7.80;94.30
1021;DHT22;499;42.648;23.270;2024-03-02T08:30:26;8.10;94.30
1021;DHT22;499;42.648;23.270;2024-03-02T08:32:53;8.00;95.40
1021;DHT22;499;42.648;23.270;2024-03-02T08:35:21;8.20;96.20
1021;DHT22;499;42.648;23.270;2024-03-02T08:37:48;8.10;95.50
1021;DHT22;499;42.648;23.270;2024-03-02T08:40:16;8.10;95.30
1021;DHT22;499;42.648;23.270;2024-03-02T08:42:43;8.10;95.30
1021;DHT22;499;42.648;23.270;2024-03-02T08:45:11;8.10;95.20
1021;DHT22;499;42.648;23.270;2024-03-02T08:47:38;8.20;95.90
1021;DHT22;499;42.648;23.270;2024-03-02T08:50:06;8.30;95.00
1021;DHT22;499;42.648;23.270;2024-03-02T08:52:35;8.30;95.70
1021;DHT22;499;42.648;23.270;2024-03-02T08:55:03;8.30;94.40
1021;DHT22;499;42.648;23.270;2024-03-02T08:57:30;8.40;93.10
1021;DHT22;499;42.648;23.270;2024-03-02T08:59:57;8.60;93.90
1021;DHT22;499;42.648;23.270;2024-03-02T09:02:25;8.60;93.10
1021;DHT22;499;42.648;23.270;2024-03-02T09:04:52;8.60;92.30
1021;DHT22;499;42.648;23.270;2024-03-02T09:07:19;8.80;93.00
1021;DHT22;499;42.648;23.270;2024-03-02T09:09:48;9.00;92.20
1021;DHT22;499;42.648;23.270;2024-03-02T09:12:15;9.00;83.70
1021;DHT22;499;42.648;23.270;2024-03-02T09:14:42;9.00;76.90
1021;DHT22;499;42.648;23.270;2024-03-02T09:17:09;8.80;77.70
1021;DHT22;499;42.648;23.270;2024-03-02T09:19:37;8.70;81.20
1021;DHT22;499;42.648;23.270;2024-03-02T09:22:05;8.60;82.20
1021;DHT22;499;42.648;23.270;2024-03-02T09:24:32;8.50;84.10
1021;DHT22;499;42.648;23.270;2024-03-02T09:27:01;8.50;86.60
1021;DHT22;499;42.648;23.270;2024-03-02T09:29:28;8.50;86.70
1021;DHT22;499;42.648;23.270;2024-03-02T09:31:55;8.60;86.70
1021;DHT22;499;42.648;23.270;2024-03-02T09:34:22;8.60;87.40
1021;DHT22;499;42.648;23.270;2024-03-02T09:36:50;8.70;88.50
1021;DHT22;499;42.648;23.270;2024-03-02T09:39:18;8.90;88.40
1021;DHT22;499;42.648;23.270;2024-03-02T09:41:45;8.90;87.00
1021;DHT22;499;42.648;23.270;2024-03-02T09:44:15;8.90;84.20
1021;DHT22;499;42.648;23.270;2024-03-02T09:46:42;9.00;82.40
1021;DHT22;499;42.648;23.270;2024-03-02T09:49:09;9.00;76.40
1021;DHT22;499;42.648;23.270;2024-03-02T09:51:37;8.80;76.60
1021;DHT22;499;42.648;23.270;2024-03-02T09:54:05;8.50;79.00
1021;DHT22;499;42.648;23.270;2024-03-02T09:56:34;8.40;83.60
1021;DHT22;499;42.648;23.270;2024-03-02T09:59:01;8.30;87.70
1021;DHT22;499;42.648;23.270;2024-03-02T10:01:30;8.40;90.40
1021;DHT22;499;42.648;23.270;2024-03-02T10:03:59;8.40;87.70
1021;DHT22;499;42.648;23.270;2024-03-02T10:06:27;8.50;87.80
1021;DHT22;499;42.648;23.270;2024-03-02T10:08:55;8.60;85.90
1021;DHT22;499;42.648;23.270;2024-03-02T10:11:27;8.70;88.50
1021;DHT22;499;42.648;23.270;2024-03-02T10:14:08;8.90;85.40
1021;DHT22;499;42.648;23.270;2024-03-02T10:16:38;9.00;84.20
1021;DHT22;499;42.648;23.270;2024-03-02T10:19:18;9.10;81.60
1021;DHT22;499;42.648;23.270;2024-03-02T10:21:46;9.20;81.60
1021;DHT22;499;42.648;23.270;2024-03-02T10:24:15;9.30;70.00
1021;DHT22;499;42.648;23.270;2024-03-02T10:26:42;9.20;70.30
1021;DHT22;499;42.648;23.270;2024-03-02T10:29:09;9.30;71.70
1021;DHT22;499;42.648;23.270;2024-03-02T10:31:39;9.20;71.80
1021;DHT22;499;42.648;23.270;2024-03-02T10:34:06;9.20;72.50
1021;DHT22;499;42.648;23.270;2024-03-02T10:36:33;9.20;74.20
1021;DHT22;499;42.648;23.270;2024-03-02T10:39:02;9.20;72.80
1021;DHT22;499;42.648;23.270;2024-03-02T10:41:33;9.30;77.20
1021;DHT22;499;42.648;23.270;2024-03-02T10:44:02;9.30;78.80
1021;DHT22;499;42.648;23.270;2024-03-02T10:46:31;9.30;80.50
1021;DHT22;499;42.648;23.270;2024-03-02T10:49:01;9.20;75.80
1021;DHT22;499;42.648;23.270;2024-03-02T10:51:30;9.10;78.30
1021;DHT22;499;42.648;23.270;2024-03-02T10:53:58;9.10;82.60
1021;DHT22;499;42.648;23.270;2024-03-02T10:56:28;9.20;86.70
1021;DHT22;499;42.648;23.270;2024-03-02T10:59:02;9.10;82.60
1021;DHT22;499;42.648;23.270;2024-03-02T11:01:32;9.00;85.90
1021;DHT22;499;42.648;23.270;2024-03-02T11:04:02;8.70;90.40
1021;DHT22;499;42.648;23.270;2024-03-02T11:06:32;8.60;91.90
1021;DHT22;499;42.648;23.270;2024-03-02T11:09:06;8.60;94.60
1021;DHT22;499;42.648;23.270;2024-03-02T11:11:37;8.70;95.90
1021;DHT22;499;42.648;23.270;2024-03-02T11:14:13;8.80;97.10
1021;DHT22;499;42.648;23.270;2024-03-02T11:16:40;8.60;96.40
1021;DHT22;499;42.648;23.270;2024-03-02T11:19:11;8.70;97.00
1021;DHT22;499;42.648;23.270;2024-03-02T11:21:39;8.80;97.70
1021;DHT22;499;42.648;23.270;2024-03-02T11:24:29;8.80;97.20
1021;DHT22;499;42.648;23.270;2024-03-02T11:26:59;8.90;96.70
1021;DHT22;499;42.648;23.270;2024-03-02T11:29:46;8.90;94.80
1021;DHT22;499;42.648;23.270;2024-03-02T11:32:20;8.70;94.60
1021;DHT22;499;42.648;23.270;2024-03-02T11:34:50;8.70;96.10
1021;DHT22;499;42.648;23.270;2024-03-02T11:37:18;8.80;97.20
1021;DHT22;499;42.648;23.270;2024-03-02T11:39:48;8.80;96.60
1021;DHT22;499;42.648;23.270;2024-03-02T11:42:16;8.80;95.40
1021;DHT22;499;42.648;23.270;2024-03-02T11:44:45;8.80;94.90
1021;DHT22;499;42.648;23.270;2024-03-02T11:47:14;8.80;95.00
1021;DHT22;499;42.648;23.270;2024-03-02T11:49:42;8.80;92.60
1021;DHT22;499;42.648;23.270;2024-03-02T11:52:13;9.00;93.00
1021;DHT22;499;42.648;23.270;2024-03-02T11:54:42;9.00;91.70
1021;DHT22;499;42.648;23.270;2024-03-02T11:57:13;8.90;90.70
1021;DHT22;499;42.648;23.270;2024-03-02T11:59:40;9.00;92.00
1021;DHT22;499;42.648;23.270;2024-03-02T12:02:16;9.10;90.80
1021;DHT22;499;42.648;23.270;2024-03-02T12:04:44;9.20;87.30
1021;DHT22;499;42.648;23.270;2024-03-02T12:07:18;9.30;83.40
1021;DHT22;499;42.648;23.270;2024-03-02T12:09:46;9.30;79.40
1021;DHT22;499;42.648;23.270;2024-03-02T12:12:13;9.20;78.00
1021;DHT22;499;42.648;23.270;2024-03-02T12:14:51;9.20;78.10
1021;DHT22;499;42.648;23.270;2024-03-02T12:17:18;9.30;80.00
1021;DHT22;499;42.648;23.270;2024-03-02T12:19:45;9.30;78.90
1021;DHT22;499;42.648;23.270;2024-03-02T12:22:14;9.20;74.80
1021;DHT22;499;42.648;23.270;2024-03-02T12:24:42;9.10;76.50
1021;DHT22;499;42.648;23.270;2024-03-02T12:27:12;9.10;78.90
1021;DHT22;499;42.648;23.270;2024-03-02T12:29:39;9.10;82.60
1021;DHT22;499;42.648;23.270;2024-03-02T12:32:08;9.20;84.50
1021;DHT22;499;42.648;23.270;2024-03-02T12:34:35;9.40;84.00
1021;DHT22;499;42.648;23.270;2024-03-02T12:37:02;9.50;82.20
1021;DHT22;499;42.648;23.270;2024-03-02T12:39:30;9.60;75.20
1021;DHT22;499;42.648;23.270;2024-03-02T12:41:58;9.60;75.10
1021;DHT22;499;42.648;23.270;2024-03-02T12:44:25;9.70;73.80
1021;DHT22;499;42.648;23.270;2024-03-02T12:46:52;9.80;72.20
1021;DHT22;499;42.648;23.270;2024-03-02T12:49:22;10.00;69.20
1021;DHT22;499;42.648;23.270;2024-03-02T12:51:49;10.00;66.00
1021;DHT22;499;42.648;23.270;2024-03-02T12:54:22;9.90;65.70
1021;DHT22;499;42.648;23.270;2024-03-02T12:56:51;9.90;66.50
1021;DHT22;499;42.648;23.270;2024-03-02T12:59:20;9.90;65.60
1021;DHT22;499;42.648;23.270;2024-03-02T13:01:51;9.80;67.20
1021;DHT22;499;42.648;23.270;2024-03-02T13:04:22;9.60;73.00
1021;DHT22;499;42.648;23.270;2024-03-02T13:06:50;9.50;76.00
1021;DHT22;499;42.648;23.270;2024-03-02T13:09:17;9.50;78.40
1021;DHT22;499;42.648;23.270;2024-03-02T13:11:45;9.50;77.50
1021;DHT22;499;42.648;23.270;2024-03-02T13:14:13;9.40;78.30
1021;DHT22;499;42.648;23.270;2024-03-02T13:16:41;9.40;76.80
1021;DHT22;499;42.648;23.270;2024-03-02T13:19:08;9.30;75.60
1021;DHT22;499;42.648;23.270;2024-03-02T13:21:35;9.30;78.20
1021;DHT22;499;42.648;23.270;2024-03-02T13:24:03;9.30;79.20
1021;DHT22;499;42.648;23.270;2024-03-02T13:26:30;9.40;82.90
1021;DHT22;499;42.648;23.270;2024-03-02T13:28:58;9.50;80.10
1021;DHT22;499;42.648;23.270;2024-03-02T13:31:26;9.40;77.70
1021;DHT22;499;42.648;23.270;2024-03-02T13:33:53;9.50;78.40
1021;DHT22;499;42.648;23.270;2024-03-02T13:36:20;9.50;77.30
1021;DHT22;499;42.648;23.270;2024-03-02T13:42:48;9.50;75.80
1021;DHT22;499;42.648;23.270;2024-03-02T13:49:14;9.50;76.50
1021;DHT22;499;42.648;23.270;2024-03-02T13:52:16;9.50;77.70
1021;DHT22;499;42.648;23.270;2024-03-02T13:58:14;9.60;78.40
1021;DHT22;499;42.648;23.270;2024-03-02T14:01:25;9.60;74.40
1021;DHT22;499;42.648;23.270;2024-03-02T14:15:42;9.80;69.70
1021;DHT22;499;42.648;23.270;2024-03-02T14:19:17;9.90;71.50
1021;DHT22;499;42.648;23.270;2024-03-02T14:22:40;9.90;64.60
1021;DHT22;499;42.648;23.270;2024-03-02T14:25:38;9.90;66.00
1021;DHT22;499;42.648;23.270;2024-03-02T14:28:06;10.00;64.30
1021;DHT22;499;42.648;23.270;2024-03-02T14:30:41;9.90;65.40
1021;DHT22;499;42.648;23.270;2024-03-02T14:33:22;10.00;67.10
1021;DHT22;499;42.648;23.270;2024-03-02T14:36:04;10.10;65.60
1021;DHT22;499;42.648;23.270;2024-03-02T14:38:36;10.10;64.80
1021;DHT22;499;42.648;23.270;2024-03-02T14:41:15;10.10;64.40
1021;DHT22;499;42.648;23.270;2024-03-02T14:43:46;10.20;65.10
1021;DHT22;499;42.648;23.270;2024-03-02T14:46:40;10.40;65.40
1021;DHT22;499;42.648;23.270;2024-03-02T14:49:53;10.50;63.90
1021;DHT22;499;42.648;23.270;2024-03-02T14:52:39;10.50;59.10
1021;DHT22;499;42.648;23.270;2024-03-02T14:55:20;10.30;56.60
1021;DHT22;499;42.648;23.270;2024-03-02T14:58:01;10.10;55.30
1021;DHT22;499;42.648;23.270;2024-03-02T15:00:42;10.10;59.90
1021;DHT22;499;42.648;23.270;2024-03-02T15:03:44;10.20;57.90
1021;DHT22;499;42.648;23.270;2024-03-02T15:06:38;10.20;58.80
1021;DHT22;499;42.648;23.270;2024-03-02T15:09:46;10.10;59.70
1021;DHT22;499;42.648;23.270;2024-03-02T15:12:32;10.20;60.60
1021;DHT22;499;42.648;23.270;2024-03-02T15:30:28;10.00;60.40
1021;DHT22;499;42.648;23.270;2024-03-02T15:32:59;10.40;57.90
1021;DHT22;499;42.648;23.270;2024-03-02T15:35:50;10.20;58.80
1021;DHT22;499;42.648;23.270;2024-03-02T15:38:49;10.20;60.10
1021;DHT22;499;42.648;23.270;2024-03-02T15:41:42;9.70;61.60
1021;DHT22;499;42.648;23.270;2024-03-02T15:55:31;9.60;73.70
1021;DHT22;499;42.648;23.270;2024-03-02T15:58:45;9.40;78.20
1021;DHT22;499;42.648;23.270;2024-03-02T16:02:03;9.40;81.50
1021;DHT22;499;42.648;23.270;2024-03-02T16:05:03;9.40;84.10
1021;DHT22;499;42.648;23.270;2024-03-02T16:07:59;9.30;82.80
1021;DHT22;499;42.648;23.270;2024-03-02T16:10:51;9.40;87.90
1021;DHT22;499;42.648;23.270;2024-03-02T16:13:35;9.40;86.70
1021;DHT22;499;42.648;23.270;2024-03-02T16:16:27;9.40;87.50
1021;DHT22;499;42.648;23.270;2024-03-02T16:19:28;9.30;85.70
1021;DHT22;499;42.648;23.270;2024-03-02T16:22:30;9.40;85.10
1021;DHT22;499;42.648;23.270;2024-03-02T16:25:19;9.20;82.70
1021;DHT22;499;42.648;23.270;2024-03-02T16:28:31;9.20;83.70
1021;DHT22;499;42.648;23.270;2024-03-02T16:31:40;9.20;80.80
1021;DHT22;499;42.648;23.270;2024-03-02T16:35:01;9.00;77.80
1021;DHT22;499;42.648;23.270;2024-03-02T16:38:25;9.00;78.60
1021;DHT22;499;42.648;23.270;2024-03-02T16:41:13;8.90;77.80
1021;DHT22;499;42.648;23.270;2024-03-02T16:44:26;8.80;77.70
1021;DHT22;499;42.648;23.270;2024-03-02T16:51:15;8.70;75.30
1021;DHT22;499;42.648;23.270;2024-03-02T16:54:16;8.70;78.60
1021;DHT22;499;42.648;23.270;2024-03-02T16:57:36;8.60;78.00
1021;DHT22;499;42.648;23.270;2024-03-02T17:00:55;8.50;77.40
1021;DHT22;499;42.648;23.270;2024-03-02T17:04:07;8.60;77.50
1021;DHT22;499;42.648;23.270;2024-03-02T17:07:33;8.50;77.40
1021;DHT22;499;42.648;23.270;2024-03-02T17:10:40;8.40;77.40
1021;DHT22;499;42.648;23.270;2024-03-02T17:13:40;8.30;77.80
1021;DHT22;499;42.648;23.270;2024-03-02T17:16:55;8.30;79.50
1021;DHT22;499;42.648;23.270;2024-03-02T17:20:12;8.30;81.90
1021;DHT22;499;42.648;23.270;2024-03-02T17:23:11;8.30;80.20
1021;DHT22;499;42.648;23.270;2024-03-02T17:26:39;8.20;79.50
1021;DHT22;499;42.648;23.270;2024-03-02T17:30:07;8.10;79.40
1021;DHT22;499;42.648;23.270;2024-03-02T17:33:08;7.90;81.50
1021;DHT22;499;42.648;23.270;2024-03-02T17:35:57;8.00;82.60
1021;DHT22;499;42.648;23.270;2024-03-02T17:39:02;7.80;80.70
1021;DHT22;499;42.648;23.270;2024-03-02T17:42:10;7.80;83.10
1021;DHT22;499;42.648;23.270;2024-03-02T17:45:06;7.70;84.10
1021;DHT22;499;42.648;23.270;2024-03-02T17:48:44;7.50;85.70
1021;DHT22;499;42.648;23.270;2024-03-02T17:52:07;7.50;90.10
1021;DHT22;499;42.648;23.270;2024-03-02T17:55:39;7.50;90.10
1021;DHT22;499;42.648;23.270;2024-03-02T18:09:47;7.30;92.80
1021;DHT22;499;42.648;23.270;2024-03-02T18:13:09;7.20;92.40
1021;DHT22;499;42.648;23.270;2024-03-02T18:19:56;7.00;92.20
1021;DHT22;499;42.648;23.270;2024-03-02T18:23:14;7.00;92.50
1021;DHT22;499;42.648;23.270;2024-03-02T18:26:33;6.90;92.60
1021;DHT22;499;42.648;23.270;2024-03-02T18:29:52;7.00;93.90
1021;DHT22;499;42.648;23.270;2024-03-02T18:33:10;7.10;94.00
1021;DHT22;499;42.648;23.270;2024-03-02T18:36:13;7.00;93.30
1021;DHT22;499;42.648;23.270;2024-03-02T18:39:30;7.00;93.50
1021;DHT22;499;42.648;23.270;2024-03-02T18:53:41;7.00;94.60
1021;DHT22;499;42.648;23.270;2024-03-02T18:57:09;7.10;94.00
1021;DHT22;499;42.648;23.270;2024-03-02T19:00:35;7.00;92.60
1021;DHT22;499;42.648;23.270;2024-03-02T19:07:16;6.90;93.90
1021;DHT22;499;42.648;23.270;2024-03-02T19:10:36;7.00;95.20
1021;DHT22;499;42.648;23.270;2024-03-02T19:13:41;7.00;93.40
1021;DHT22;499;42.648;23.270;2024-03-02T19:16:29;7.00;93.00
1021;DHT22;499;42.648;23.270;2024-03-02T19:19:14;7.10;92.80
1021;DHT22;499;42.648;23.270;2024-03-02T19:22:07;7.10;92.60
1021;DHT22;499;42.648;23.270;2024-03-02T19:25:08;7.00;92.90
1021;DHT22;499;42.648;23.270;2024-03-02T19:28:04;7.10;93.80
1021;DHT22;499;42.648;23.270;2024-03-02T19:31:13;7.10;93.70
1021;DHT22;499;42.648;23.270;2024-03-02T19:34:18;7.20;93.40
1021;DHT22;499;42.648;23.270;2024-03-02T19:37:40;7.20;92.80
1021;DHT22;499;42.648;23.270;2024-03-02T19:40:42;7.10;91.60
1021;DHT22;499;42.648;23.270;2024-03-02T19:43:47;7.00;92.30
1021;DHT22;499;42.648;23.270;2024-03-02T19:47:06;7.00;92.70
1021;DHT22;499;42.648;23.270;2024-03-02T19:50:10;7.50;93.20
1021;DHT22;499;42.648;23.270;2024-03-02T19:56:42;7.10;93.50
1021;DHT22;499;42.648;23.270;2024-03-02T19:59:30;7.10;93.00
1021;DHT22;499;42.648;23.270;2024-03-02T20:02:35;7.10;93.40
1021;DHT22;499;42.648;23.270;2024-03-02T20:05:48;7.10;92.70
1021;DHT22;499;42.648;23.270;2024-03-02T20:08:59;7.00;93.80
1021;DHT22;499;42.648;23.270;2024-03-02T20:15:42;6.90;95.70
1021;DHT22;499;42.648;23.270;2024-03-02T20:18:38;7.00;95.90
1021;DHT22;499;42.648;23.270;2024-03-02T20:21:28;7.00;95.90
1021;DHT22;499;42.648;23.270;2024-03-02T20:24:51;7.10;96.60
1021;DHT22;499;42.648;23.270;2024-03-02T20:27:57;7.20;95.90
1021;DHT22;499;42.648;23.270;2024-03-02T20:30:53;7.20;96.30
1021;DHT22;499;42.648;23.270;2024-03-02T20:33:45;7.20;96.70
1021;DHT22;499;42.648;23.270;2024-03-02T20:36:52;7.20;96.80
1021;DHT22;499;42.648;23.270;2024-03-02T20:40:12;7.20;96.70
1021;DHT22;499;42.648;23.270;2024-03-02T20:43:17;7.20;96.10
1021;DHT22;499;42.648;23.270;2024-03-02T20:46:28;7.10;95.90
1021;DHT22;499;42.648;23.270;2024-03-02T20:49:42;7.10;95.90
1021;DHT22;499;42.648;23.270;2024-03-02T20:53:19;7.20;96.10
1021;DHT22;499;42.648;23.270;2024-03-02T20:56:44;7.20;95.00
1021;DHT22;499;42.648;23.270;2024-03-02T21:00:17;7.10;94.20
1021;DHT22;499;42.648;23.270;2024-03-02T21:06:58;7.20;93.00
1021;DHT22;499;42.648;23.270;2024-03-02T21:13:22;7.00;93.40
1021;DHT22;499;42.648;23.270;2024-03-02T21:16:15;7.20;95.20
1021;DHT22;499;42.648;23.270;2024-03-02T21:19:17;7.00;94.10
1021;DHT22;499;42.648;23.270;2024-03-02T21:29:02;7.10;94.00
1021;DHT22;499;42.648;23.270;2024-03-02T21:32:01;7.10;94.60
1021;DHT22;499;42.648;23.270;2024-03-02T21:35:21;6.90;93.80
1021;DHT22;499;42.648;23.270;2024-03-02T21:38:49;6.90;94.80
1021;DHT22;499;42.648;23.270;2024-03-02T21:41:42;7.00;96.90
1021;DHT22;499;42.648;23.270;2024-03-02T21:44:45;7.00;97.10
1021;DHT22;499;42.648;23.270;2024-03-02T21:47:39;6.90;96.60
1021;DHT22;499;42.648;23.270;2024-03-02T21:50:48;7.00;97.20
1021;DHT22;499;42.648;23.270;2024-03-02T21:53:45;7.00;98.40
1021;DHT22;499;42.648;23.270;2024-03-02T21:56:49;7.20;97.50
1021;DHT22;499;42.648;23.270;2024-03-02T22:00:16;7.20;97.00
1021;DHT22;499;42.648;23.270;2024-03-02T22:03:26;7.20;95.50
1021;DHT22;499;42.648;23.270;2024-03-02T22:06:40;7.30;95.60
1021;DHT22;499;42.648;23.270;2024-03-02T22:09:59;7.20;93.50
1021;DHT22;499;42.648;23.270;2024-03-02T22:13:20;7.10;94.00
1021;DHT22;499;42.648;23.270;2024-03-02T22:16:31;7.30;95.00
1021;DHT22;499;42.648;23.270;2024-03-02T22:19:48;7.30;94.00
1021;DHT22;499;42.648;23.270;2024-03-02T22:23:05;7.30;92.00
1021;DHT22;499;42.648;23.270;2024-03-02T22:26:05;7.40;91.80
1021;DHT22;499;42.648;23.270;2024-03-02T22:29:24;7.40;90.80
1021;DHT22;499;42.648;23.270;2024-03-02T22:32:24;7.40;88.80
1021;DHT22;499;42.648;23.270;2024-03-02T22:35:39;7.40;86.20
1021;DHT22;499;42.648;23.270;2024-03-02T22:39:05;7.30;85.60
1021;DHT22;499;42.648;23.270;2024-03-02T22:42:13;7.10;87.50
1021;DHT22;499;42.648;23.270;2024-03-02T22:45:33;7.10;90.90
1021;DHT22;499;42.648;23.270;2024-03-02T22:48:44;7.20;90.70
1021;DHT22;499;42.648;23.270;2024-03-02T22:52:27;7.10;89.90
1021;DHT22;499;42.648;23.270;2024-03-02T22:55:12;7.10;91.20
1021;DHT22;499;42.648;23.270;2024-03-02T22:58:19;7.00;90.30
1021;DHT22;499;42.648;23.270;2024-03-02T23:01:35;6.90;89.70
1021;DHT22;499;42.648;23.270;2024-03-02T23:04:28;6.90;90.40
1021;DHT22;499;42.648;23.270;2024-03-02T23:07:38;6.90;91.60
1021;DHT22;499;42.648;23.270;2024-03-02T23:10:22;6.90;89.70
1021;DHT22;499;42.648;23.270;2024-03-02T23:13:40;6.90;89.50
1021;DHT22;499;42.648;23.270;2024-03-02T23:16:39;6.80;88.30
1021;DHT22;499;42.648;23.270;2024-03-02T23:19:43;6.70;87.10
1021;DHT22;499;42.648;23.270;2024-03-02T23:26:31;5.80;90.60
1021;DHT22;499;42.648;23.270;2024-03-02T23:30:23;6.40;92.20
1021;DHT22;499;42.648;23.270;2024-03-02T23:37:46;5.90;93.10
1021;DHT22;499;42.648;23.270;2024-03-02T23:41:08;6.30;93.00
1021;DHT22;499;42.648;23.270;2024-03-02T23:44:11;6.30;93.60
1021;DHT22;499;42.648;23.270;2024-03-02T23:47:21;6.40;93.50
1021;DHT22;499;42.648;23.270;2024-03-02T23:50:36;6.10;92.60
1021;DHT22;499;42.648;23.270;2024-03-02T23:53:56;6.20;95.30
1021;DHT22;499;42.648;23.270;2024-03-02T23:57:01;5.90;94.20
